createdAt,value
2022-09-23T00:01:18.257Z,99.90
2022-09-23T00:03:47.101Z,99.90
2022-09-23T00:06:22.774Z,99.90
2022-09-23T00:08:50.913Z,99.90
2022-09-23T00:11:26.617Z,99.90
2022-09-23T00:13:57.199Z,99.90
2022-09-23T00:16:27.029Z,99.90
2022-09-23T00:18:54.903Z,99.90
2022-09-23T00:21:22.995Z,99.90
2022-09-23T00:23:50.648Z,99.90
2022-09-23T00:26:20.624Z,99.90
2022-09-23T00:28:49.240Z,99.90
2022-09-23T00:31:22.544Z,99.90
2022-09-23T00:33:59.847Z,99.90
2022-09-23T00:36:28.974Z,99.90
2022-09-23T00:38:56.505Z,99.90
2022-09-23T00:41:24.842Z,99.90
2022-09-23T00:43:54.913Z,99.90
2022-09-23T00:46:29.030Z,99.90
2022-09-23T00:49:01.773Z,99.90
2022-09-23T00:51:34.932Z,99.90
2022-09-23T00:54:03.133Z,99.90
2022-09-23T00:56:33.109Z,99.90
2022-09-23T00:59:01.549Z,99.90
2022-09-23T01:01:28.939Z,99.90
2022-09-23T01:03:57.227Z,99.90
2022-09-23T01:06:24.476Z,99.90
2022-09-23T01:08:52.416Z,99.90
2022-09-23T01:11:24.484Z,99.90
2022-09-23T01:14:03.579Z,99.90
2022-09-23T01:16:36.914Z,99.90
2022-09-23T01:19:22.724Z,99.90
2022-09-23T01:22:19.380Z,99.90
2022-09-23T01:24:59.629Z,99.90
2022-09-23T01:27:38.393Z,99.90
2022-09-23T01:30:12.317Z,99.90
2022-09-23T01:33:13.532Z,99.90
2022-09-23T01:36:13.065Z,99.90
2022-09-23T01:39:03.112Z,99.90
2022-09-23T01:41:59.450Z,99.90
2022-09-23T01:44:36.554Z,99.90
2022-09-23T01:47:23.147Z,99.90
2022-09-23T01:50:30.370Z,99.90
2022-09-23T01:53:04.130Z,99.90
2022-09-23T01:55:35.758Z,99.90
2022-09-23T01:58:12.543Z,99.90
2022-09-23T02:01:03.253Z,99.90
2022-09-23T02:04:04.323Z,99.90
2022-09-23T02:06:39.224Z,99.90
2022-09-23T02:09:12.752Z,99.90
2022-09-23T02:11:45.418Z,99.90
2022-09-23T02:14:20.503Z,99.90
2022-09-23T02:16:51.790Z,99.90
2022-09-23T02:19:22.632Z,99.90
2022-09-23T02:21:55.720Z,99.90
2022-09-23T02:24:28.243Z,99.90
2022-09-23T02:27:26.084Z,99.90
2022-09-23T02:30:19.329Z,99.90
2022-09-23T02:32:56.711Z,99.90
2022-09-23T02:35:44.325Z,99.90
2022-09-23T02:38:35.202Z,99.90
2022-09-23T02:41:09.634Z,99.90
2022-09-23T02:43:51.791Z,99.90
2022-09-23T02:46:20.009Z,99.90
2022-09-23T02:48:57.050Z,99.90
2022-09-23T02:51:25.916Z,99.90
2022-09-23T02:53:56.547Z,99.90
2022-09-23T02:56:24.523Z,99.90
2022-09-23T02:58:55.309Z,99.90
2022-09-23T03:01:47.824Z,99.90
2022-09-23T03:04:26.061Z,99.90
2022-09-23T03:07:01.699Z,99.90
2022-09-23T03:09:45.092Z,99.90
2022-09-23T03:12:30.655Z,99.90
2022-09-23T03:15:16.021Z,99.90
2022-09-23T03:18:09.383Z,99.90
2022-09-23T03:20:50.773Z,99.90
2022-09-23T03:23:25.433Z,99.90
2022-09-23T03:25:55.754Z,99.90
2022-09-23T03:28:25.642Z,99.90
2022-09-23T03:30:54.772Z,99.90
2022-09-23T03:33:28.969Z,99.90
2022-09-23T03:36:22.469Z,99.90
2022-09-23T03:38:55.519Z,99.90
2022-09-23T03:41:30.483Z,99.90
2022-09-23T03:44:00.204Z,99.90
2022-09-23T03:46:30.393Z,99.90
2022-09-23T03:49:05.603Z,99.90
2022-09-23T03:51:32.798Z,99.90
2022-09-23T03:54:00.128Z,99.90
2022-09-23T03:56:27.330Z,99.90
2022-09-23T03:58:54.513Z,99.90
2022-09-23T04:01:21.811Z,99.90
2022-09-23T04:03:49.284Z,99.90
2022-09-23T04:06:17.164Z,99.90
2022-09-23T04:08:44.320Z,99.90
2022-09-23T04:11:11.593Z,99.90
2022-09-23T04:13:38.833Z,99.90
2022-09-23T04:16:06.323Z,99.90
2022-09-23T04:18:33.541Z,99.90
2022-09-23T04:21:00.841Z,99.90
2022-09-23T04:23:28.211Z,99.90
2022-09-23T04:25:55.720Z,99.90
2022-09-23T04:28:23.489Z,99.90
2022-09-23T04:30:51.099Z,99.90
2022-09-23T04:33:18.697Z,99.90
2022-09-23T04:35:53.735Z,99.90
2022-09-23T04:38:20.999Z,99.90
2022-09-23T04:40:48.928Z,99.90
2022-09-23T04:43:16.742Z,99.90
2022-09-23T04:45:44.938Z,99.90
2022-09-23T04:48:14.153Z,99.90
2022-09-23T04:50:41.605Z,99.90
2022-09-23T04:53:08.771Z,99.90
2022-09-23T04:55:36.040Z,99.90
2022-09-23T04:58:03.361Z,99.90
2022-09-23T05:00:30.593Z,99.90
2022-09-23T05:02:57.721Z,99.90
2022-09-23T05:05:25.004Z,99.90
2022-09-23T05:07:55.894Z,99.90
2022-09-23T05:10:23.270Z,99.90
2022-09-23T05:12:53.640Z,99.90
2022-09-23T05:15:24.189Z,99.90
2022-09-23T05:17:51.363Z,99.90
2022-09-23T05:20:19.400Z,99.90
2022-09-23T05:22:46.590Z,99.90
2022-09-23T05:25:13.770Z,99.90
2022-09-23T05:27:40.990Z,99.90
2022-09-23T05:30:09.106Z,99.90
2022-09-23T05:32:36.301Z,99.90
2022-09-23T05:35:04.711Z,99.90
2022-09-23T05:37:33.312Z,99.90
2022-09-23T05:40:00.595Z,99.90
2022-09-23T05:42:28.830Z,99.90
2022-09-23T05:44:56.438Z,99.90
2022-09-23T05:47:23.795Z,99.90
2022-09-23T05:49:59.738Z,99.90
2022-09-23T05:52:27.988Z,99.90
2022-09-23T05:54:55.323Z,99.90
2022-09-23T05:57:22.627Z,99.90
2022-09-23T05:59:49.891Z,99.90
2022-09-23T06:02:17.025Z,99.90
2022-09-23T06:04:44.254Z,99.90
2022-09-23T06:07:11.803Z,99.90
2022-09-23T06:09:39.100Z,99.90
2022-09-23T06:12:06.620Z,99.90
2022-09-23T06:14:34.130Z,99.90
2022-09-23T06:17:01.393Z,99.90
2022-09-23T06:19:28.524Z,99.90
2022-09-23T06:21:55.624Z,99.90
2022-09-23T06:24:26.086Z,99.90
2022-09-23T06:26:56.023Z,99.90
2022-09-23T06:29:23.484Z,99.90
2022-09-23T06:31:50.792Z,99.90
2022-09-23T06:34:18.309Z,99.90
2022-09-23T06:36:46.692Z,99.90
2022-09-23T06:39:15.734Z,99.90
2022-09-23T06:41:49.160Z,99.90
2022-09-23T06:44:16.280Z,99.90
2022-09-23T06:46:43.970Z,99.90
2022-09-23T06:49:12.312Z,99.90
2022-09-23T06:51:40.404Z,99.90
2022-09-23T06:54:07.807Z,99.90
2022-09-23T06:56:39.123Z,99.90
2022-09-23T06:59:09.925Z,99.90
2022-09-23T07:01:37.220Z,99.90
2022-09-23T07:04:04.737Z,99.90
2022-09-23T07:06:32.132Z,99.90
2022-09-23T07:08:59.350Z,99.90
2022-09-23T07:11:27.198Z,99.90
2022-09-23T07:13:54.249Z,99.90
2022-09-23T07:16:21.569Z,99.90
2022-09-23T07:18:48.911Z,99.90
2022-09-23T07:21:18.905Z,99.90
2022-09-23T07:23:48.669Z,99.90
2022-09-23T07:26:16.772Z,99.90
2022-09-23T07:28:44.240Z,99.90
2022-09-23T07:31:16.261Z,99.90
2022-09-23T07:33:45.057Z,99.90
2022-09-23T07:36:18.332Z,99.90
2022-09-23T07:38:47.640Z,99.90
2022-09-23T07:41:17.962Z,99.90
2022-09-23T07:43:46.272Z,99.90
2022-09-23T07:46:18.131Z,99.90
2022-09-23T07:48:46.109Z,99.90
2022-09-23T07:51:20.571Z,99.90
2022-09-23T07:53:49.629Z,99.90
2022-09-23T07:56:19.285Z,99.90
2022-09-23T07:59:04.072Z,99.90
2022-09-23T08:01:43.307Z,99.90
2022-09-23T08:04:26.242Z,99.90
2022-09-23T08:06:58.920Z,99.90
2022-09-23T08:09:47.680Z,99.90
2022-09-23T08:12:17.970Z,99.90
2022-09-23T08:14:45.547Z,99.90
2022-09-23T08:17:13.529Z,99.90
2022-09-23T08:19:40.627Z,99.90
2022-09-23T08:22:07.981Z,99.90
2022-09-23T08:24:35.057Z,99.90
2022-09-23T08:27:02.214Z,99.90
2022-09-23T08:29:29.343Z,99.90
2022-09-23T08:31:56.520Z,99.90
2022-09-23T08:34:24.048Z,99.90
2022-09-23T08:36:52.650Z,99.90
2022-09-23T08:39:20.509Z,97.40
2022-09-23T08:41:58.379Z,99.90
2022-09-23T08:44:40.707Z,99.90
2022-09-23T08:47:27.679Z,99.90
2022-09-23T08:50:13.291Z,99.30
2022-09-23T08:52:58.974Z,99.30
2022-09-23T08:55:46.814Z,99.90
2022-09-23T08:58:56.041Z,96.10
2022-09-23T09:01:45.446Z,90.50
2022-09-23T09:04:36.111Z,95.50
2022-09-23T09:10:25.771Z,92.30
2022-09-23T09:13:07.659Z,94.50
2022-09-23T09:15:50.261Z,96.90
2022-09-23T09:18:21.581Z,89.90
2022-09-23T09:21:11.669Z,87.80
2022-09-23T09:23:56.174Z,90.70
2022-09-23T09:26:29.700Z,94.90
2022-09-23T09:29:31.209Z,90.80
2022-09-23T09:31:57.859Z,88.90
2022-09-23T09:34:31.055Z,84.70
2022-09-23T09:37:18.431Z,85.30
2022-09-23T09:39:45.602Z,81.10
2022-09-23T09:42:40.479Z,82.70
2022-09-23T09:45:19.943Z,82.50
2022-09-23T09:48:17.878Z,86.50
2022-09-23T09:50:53.289Z,81.10
2022-09-23T09:53:25.699Z,79.60
2022-09-23T09:56:08.262Z,80.40
2022-09-23T09:58:58.810Z,79.70
2022-09-23T10:01:28.359Z,80.00
2022-09-23T10:04:27.480Z,76.70
2022-09-23T10:07:09.949Z,81.80
2022-09-23T10:09:38.657Z,83.20
2022-09-23T10:12:20.386Z,78.00
2022-09-23T10:14:52.742Z,76.40
2022-09-23T10:17:28.971Z,75.80
2022-09-23T10:20:02.134Z,77.30
2022-09-23T10:22:33.762Z,77.10
2022-09-23T10:25:07.619Z,80.70
2022-09-23T10:27:36.949Z,80.90
2022-09-23T10:30:23.621Z,78.00
2022-09-23T10:32:53.260Z,83.70
2022-09-23T10:35:24.616Z,79.60
2022-09-23T10:37:56.728Z,78.90
2022-09-23T10:40:58.762Z,80.10
2022-09-23T10:44:05.957Z,76.40
2022-09-23T10:47:02.602Z,78.40
2022-09-23T10:49:52.917Z,78.20
2022-09-23T10:52:22.907Z,76.90
2022-09-23T10:54:53.084Z,74.50
2022-09-23T10:57:45.214Z,75.90
2022-09-23T11:00:32.729Z,75.00
2022-09-23T11:03:17.058Z,76.60
2022-09-23T11:06:17.170Z,78.00
2022-09-23T11:08:56.490Z,78.80
2022-09-23T11:11:40.603Z,77.10
2022-09-23T11:14:49.167Z,77.10
2022-09-23T11:17:35.270Z,72.70
2022-09-23T11:20:26.303Z,71.40
2022-09-23T11:23:28.988Z,69.40
2022-09-23T11:26:14.348Z,68.40
2022-09-23T11:28:47.238Z,67.30
2022-09-23T11:31:38.697Z,68.70
2022-09-23T11:34:09.270Z,70.40
2022-09-23T11:36:42.317Z,72.70
2022-09-23T11:39:21.066Z,68.40
2022-09-23T11:41:52.503Z,68.50
2022-09-23T11:44:37.507Z,68.20
2022-09-23T11:47:16.267Z,68.60
2022-09-23T11:50:04.713Z,68.60
2022-09-23T11:52:41.725Z,67.60
2022-09-23T11:55:32.026Z,67.50
2022-09-23T11:58:25.287Z,69.60
2022-09-23T12:01:01.551Z,67.30
2022-09-23T12:04:08.836Z,64.50
2022-09-23T12:07:10.688Z,65.20
2022-09-23T12:10:05.168Z,64.70
2022-09-23T12:12:48.273Z,66.40
2022-09-23T12:15:40.109Z,66.30
2022-09-23T12:18:37.338Z,67.00
2022-09-23T12:21:53.326Z,65.20
2022-09-23T12:24:55.758Z,64.10
2022-09-23T12:27:28.774Z,64.30
2022-09-23T12:30:02.033Z,63.80
2022-09-23T12:32:30.233Z,65.50
2022-09-23T12:34:58.314Z,63.90
2022-09-23T12:37:34.486Z,65.70
2022-09-23T12:40:27.781Z,66.30
2022-09-23T12:42:55.394Z,65.60
2022-09-23T12:45:32.886Z,63.30
2022-09-23T12:48:24.599Z,64.20
2022-09-23T12:50:53.435Z,62.10
2022-09-23T12:53:35.707Z,64.90
2022-09-23T12:56:16.659Z,65.20
2022-09-23T12:58:43.799Z,66.10
2022-09-23T13:01:23.501Z,65.90
2022-09-23T13:04:12.019Z,66.50
2022-09-23T13:06:57.660Z,68.20
2022-09-23T13:09:31.237Z,68.30
2022-09-23T13:12:05.900Z,70.10
2022-09-23T13:14:34.328Z,70.30
2022-09-23T13:17:01.758Z,68.60
2022-09-23T13:19:28.939Z,67.70
2022-09-23T13:22:09.618Z,67.30
2022-09-23T13:24:39.979Z,67.80
2022-09-23T13:27:32.982Z,69.50
2022-09-23T13:30:08.110Z,70.50
2022-09-23T13:32:39.861Z,71.20
2022-09-23T13:35:20.361Z,70.00
2022-09-23T13:37:49.139Z,69.90
2022-09-23T13:40:24.055Z,71.10
2022-09-23T13:43:21.072Z,71.40
2022-09-23T13:45:48.447Z,72.60
2022-09-23T13:48:16.283Z,73.10
2022-09-23T13:50:51.529Z,73.80
2022-09-23T13:53:26.600Z,73.40
2022-09-23T13:56:13.665Z,72.30
2022-09-23T13:58:41.380Z,71.70
2022-09-23T14:01:10.444Z,71.10
2022-09-23T14:03:39.423Z,72.40
2022-09-23T14:06:14.904Z,72.80
2022-09-23T14:08:46.482Z,73.70
2022-09-23T14:11:22.626Z,73.90
2022-09-23T14:13:55.193Z,73.70
2022-09-23T14:16:28.305Z,74.10
2022-09-23T14:19:00.624Z,72.30
2022-09-23T14:21:37.287Z,72.70
2022-09-23T14:24:18.104Z,71.00
2022-09-23T14:26:54.805Z,72.30
2022-09-23T14:29:27.207Z,73.70
2022-09-23T14:31:57.391Z,69.90
2022-09-23T14:34:52.889Z,70.50
2022-09-23T14:37:44.068Z,70.00
2022-09-23T14:40:28.095Z,70.20
2022-09-23T14:43:21.178Z,70.70
2022-09-23T14:45:55.947Z,70.10
2022-09-23T14:48:29.508Z,72.30
2022-09-23T14:50:58.971Z,70.70
2022-09-23T14:53:46.629Z,69.40
2022-09-23T14:56:17.136Z,70.60
2022-09-23T14:58:58.928Z,73.00
2022-09-23T15:01:32.606Z,72.70
2022-09-23T15:04:01.426Z,70.90
2022-09-23T15:06:28.758Z,72.10
2022-09-23T15:08:56.413Z,72.80
2022-09-23T15:11:23.673Z,72.30
2022-09-23T15:13:53.293Z,73.00
2022-09-23T15:16:27.410Z,73.20
2022-09-23T15:18:57.951Z,73.40
2022-09-23T15:21:30.634Z,73.90
2022-09-23T15:23:58.856Z,73.10
2022-09-23T15:26:45.436Z,75.00
2022-09-23T15:29:12.855Z,75.40
2022-09-23T15:31:40.171Z,75.80
2022-09-23T15:34:07.603Z,77.30
2022-09-23T15:36:35.162Z,78.70
2022-09-23T15:39:05.516Z,79.30
2022-09-23T15:41:35.774Z,80.50
2022-09-23T15:44:13.094Z,82.10
2022-09-23T15:46:46.797Z,83.70
2022-09-23T15:49:23.316Z,85.90
2022-09-23T15:51:52.216Z,87.10
2022-09-23T15:54:19.667Z,89.00
2022-09-23T15:56:48.075Z,88.70
2022-09-23T15:59:15.237Z,89.20
2022-09-23T16:01:44.373Z,91.40
2022-09-23T16:04:13.281Z,93.40
2022-09-23T16:06:43.596Z,94.30
2022-09-23T16:09:14.667Z,95.30
2022-09-23T16:11:47.297Z,96.30
2022-09-23T16:14:16.728Z,97.60
2022-09-23T16:16:45.547Z,99.10
2022-09-23T16:19:12.965Z,99.90
2022-09-23T16:21:44.942Z,99.90
2022-09-23T16:24:18.059Z,99.90
2022-09-23T16:26:47.696Z,99.90
2022-09-23T16:29:15.317Z,99.90
2022-09-23T16:31:42.889Z,99.90
2022-09-23T16:34:10.270Z,99.90
2022-09-23T16:36:42.177Z,99.90
2022-09-23T16:39:12.848Z,99.90
2022-09-23T16:41:41.318Z,99.90
2022-09-23T16:44:10.815Z,99.90
2022-09-23T16:46:38.184Z,99.90
2022-09-23T16:49:05.586Z,99.90
2022-09-23T16:51:38.707Z,99.90
2022-09-23T16:54:12.018Z,99.90
2022-09-23T16:56:45.760Z,99.90
2022-09-23T16:59:14.139Z,99.90
2022-09-23T17:02:00.288Z,99.90
2022-09-23T17:04:27.981Z,99.90
2022-09-23T17:06:56.247Z,99.90
2022-09-23T17:09:26.182Z,99.90
2022-09-23T17:12:08.900Z,99.90
2022-09-23T17:14:36.081Z,99.90
2022-09-23T17:17:03.303Z,99.90
2022-09-23T17:19:30.716Z,99.90
2022-09-23T17:21:57.923Z,99.90
2022-09-23T17:24:25.021Z,99.90
2022-09-23T17:26:53.455Z,99.90
2022-09-23T17:29:20.823Z,99.90
2022-09-23T17:31:48.059Z,99.90
2022-09-23T17:34:16.623Z,99.90
2022-09-23T17:36:43.784Z,99.90
2022-09-23T17:39:11.403Z,99.90
2022-09-23T17:41:39.584Z,99.90
2022-09-23T17:44:08.221Z,99.90
2022-09-23T17:46:35.422Z,99.90
2022-09-23T17:49:04.229Z,99.90
2022-09-23T17:51:31.530Z,99.90
2022-09-23T17:53:58.764Z,99.90
2022-09-23T17:56:27.081Z,99.90
2022-09-23T17:58:54.421Z,99.90
2022-09-23T18:01:26.258Z,99.90
2022-09-23T18:03:55.589Z,99.90
2022-09-23T18:06:25.142Z,99.90
2022-09-23T18:08:52.850Z,99.90
2022-09-23T18:11:30.970Z,99.90
2022-09-23T18:14:00.873Z,99.90
2022-09-23T18:16:39.693Z,99.90
2022-09-23T18:19:08.603Z,99.90
2022-09-23T18:21:38.287Z,99.90
2022-09-23T18:24:28.567Z,99.90
2022-09-23T18:26:55.151Z,99.90
2022-09-23T18:29:22.464Z,99.90
2022-09-23T18:31:51.254Z,99.90
2022-09-23T18:34:18.824Z,99.90
2022-09-23T18:36:46.228Z,99.90
2022-09-23T18:39:13.629Z,99.90
2022-09-23T18:41:41.390Z,99.90
2022-09-23T18:44:09.129Z,99.90
2022-09-23T18:46:36.962Z,99.90
2022-09-23T18:49:23.051Z,99.90
2022-09-23T18:51:51.967Z,99.90
2022-09-23T18:54:20.091Z,99.90
2022-09-23T18:56:47.665Z,99.90
2022-09-23T18:59:18.010Z,99.90
2022-09-23T19:01:46.094Z,99.90
2022-09-23T19:04:15.439Z,99.90
2022-09-23T19:06:42.758Z,99.90
2022-09-23T19:09:10.790Z,99.90
2022-09-23T19:11:38.355Z,99.90
2022-09-23T19:14:10.723Z,99.90
2022-09-23T19:16:39.446Z,99.90
2022-09-23T19:19:07.612Z,99.90
2022-09-23T19:21:34.953Z,99.90
2022-09-23T19:24:05.082Z,99.90
2022-09-23T19:26:40.468Z,99.90
2022-09-23T19:29:12.920Z,99.90
2022-09-23T19:31:41.158Z,99.90
2022-09-23T19:34:13.405Z,99.90
2022-09-23T19:36:42.861Z,99.90
2022-09-23T19:39:21.128Z,99.90
2022-09-23T19:41:49.132Z,99.90
2022-09-23T19:44:17.069Z,99.90
2022-09-23T19:46:45.885Z,99.90
2022-09-23T19:49:13.789Z,99.90
2022-09-23T19:51:41.517Z,99.90
2022-09-23T19:54:09.390Z,99.90
2022-09-23T19:56:36.976Z,99.90
2022-09-23T19:59:06.135Z,99.90
2022-09-23T20:01:34.119Z,99.90
2022-09-23T20:04:02.415Z,99.90
2022-09-23T20:06:31.571Z,99.90
2022-09-23T20:09:00.988Z,99.90
2022-09-23T20:11:29.434Z,99.90
2022-09-23T20:14:01.908Z,99.90
2022-09-23T20:16:32.704Z,99.90
2022-09-23T20:19:01.223Z,99.90
2022-09-23T20:21:29.738Z,99.90
2022-09-23T20:23:58.181Z,99.90
2022-09-23T20:26:44.229Z,99.90
2022-09-23T20:29:11.658Z,99.90
2022-09-23T20:31:41.671Z,99.90
2022-09-23T20:34:10.903Z,99.90
2022-09-23T20:36:40.182Z,99.90
2022-09-23T20:39:07.590Z,99.90
2022-09-23T20:41:38.085Z,99.90
2022-09-23T20:44:07.582Z,99.90
2022-09-23T20:46:36.020Z,99.90
2022-09-23T20:49:04.083Z,99.90
2022-09-23T20:51:33.642Z,99.90
2022-09-23T20:54:01.340Z,99.90
2022-09-23T20:56:29.288Z,99.90
2022-09-23T20:59:04.212Z,99.90
2022-09-23T21:01:36.712Z,99.90
2022-09-23T21:04:06.039Z,99.90
2022-09-23T21:06:35.426Z,99.90
2022-09-23T21:09:03.417Z,99.90
2022-09-23T21:11:31.417Z,99.90
2022-09-23T21:14:01.391Z,99.90
2022-09-23T21:16:29.150Z,99.90
2022-09-23T21:18:56.743Z,99.90
2022-09-23T21:21:23.991Z,99.90
2022-09-23T21:23:51.613Z,99.90
2022-09-23T21:26:21.470Z,99.90
2022-09-23T21:28:51.239Z,99.90
2022-09-23T21:31:31.450Z,99.90
2022-09-23T21:34:04.014Z,99.90
2022-09-23T21:36:34.771Z,99.90
2022-09-23T21:39:02.047Z,99.90
2022-09-23T21:41:29.348Z,99.90
2022-09-23T21:43:57.949Z,99.90
2022-09-23T21:46:26.718Z,99.90
2022-09-23T21:48:55.295Z,99.90
2022-09-23T21:51:27.903Z,99.90
2022-09-23T21:53:57.443Z,99.90
2022-09-23T21:56:27.301Z,99.90
2022-09-23T21:58:55.519Z,99.90
2022-09-23T22:01:30.007Z,99.90
2022-09-23T22:04:08.599Z,99.90
2022-09-23T22:06:38.432Z,99.90
2022-09-23T22:09:10.683Z,99.90
2022-09-23T22:11:57.396Z,99.90
2022-09-23T22:14:26.504Z,99.90
2022-09-23T22:16:57.675Z,99.90
2022-09-23T22:19:27.202Z,99.90
2022-09-23T22:21:56.145Z,99.90
2022-09-23T22:24:23.560Z,99.90
2022-09-23T22:26:51.402Z,99.90
2022-09-23T22:29:37.170Z,99.90
2022-09-23T22:32:25.035Z,99.90
2022-09-23T22:34:52.808Z,99.90
2022-09-23T22:37:26.126Z,99.90
2022-09-23T22:39:54.125Z,99.90
2022-09-23T22:42:22.625Z,99.90
2022-09-23T22:44:50.745Z,99.90
2022-09-23T22:47:18.909Z,99.90
2022-09-23T22:49:49.504Z,99.90
2022-09-23T22:52:21.288Z,99.90
2022-09-23T22:54:48.628Z,99.90
2022-09-23T22:57:15.779Z,99.90
2022-09-23T22:59:48.335Z,99.90
2022-09-23T23:02:19.949Z,99.90
2022-09-23T23:04:47.865Z,99.90
2022-09-23T23:07:21.387Z,99.90
2022-09-23T23:09:50.469Z,99.90
2022-09-23T23:12:20.464Z,99.90
2022-09-23T23:14:48.734Z,99.90
2022-09-23T23:17:16.639Z,99.90
2022-09-23T23:19:43.845Z,99.90
2022-09-23T23:22:11.095Z,99.90
2022-09-23T23:24:38.345Z,99.90
2022-09-23T23:27:05.631Z,99.90
2022-09-23T23:29:32.887Z,99.90
2022-09-23T23:32:00.029Z,99.90
2022-09-23T23:34:28.096Z,99.90
2022-09-23T23:36:55.936Z,99.90
2022-09-23T23:39:24.962Z,99.90
2022-09-23T23:41:56.709Z,99.90
2022-09-23T23:44:26.049Z,99.90
2022-09-23T23:46:54.656Z,99.90
2022-09-23T23:49:22.212Z,99.90
2022-09-23T23:51:49.767Z,99.90
2022-09-23T23:54:17.321Z,99.90
2022-09-23T23:56:44.494Z,99.90
2022-09-23T23:59:11.873Z,99.90
